Time;durP1;ratioP1;P1;durP2;ratioP2;P2;SDS_P1;SDS_P2;PMS_P1;PMS_P2;Temp;Humidity;BMP_temperature;BMP_pressure;BME280_temperature;BME280_humidity;BME280_pressure;Samples;Min_cycle;Max_cycle;Signal;HPM_P1;HPM_P2
2023/12/26 00:02:10;;;;;;;2.08;1.88;;;;;9.90;95884.00;;;;8278943;28;20265;-71
2023/12/26 00:06:13;;;;;;;4.45;1.98;;;;;9.90;95879.00;;;;8280091;28;21036;-72
2023/12/26 00:10:18;;;;;;;1.60;1.50;;;;;9.90;95871.00;;;;8275870;28;20204;-72
2023/12/26 00:14:21;;;;;;;2.80;2.00;;;;;10.00;95876.00;;;;8280199;28;20242;-70
2023/12/26 00:18:25;;;;;;;6.50;2.03;;;;;9.90;95865.00;;;;8278815;28;20688;-72
2023/12/26 00:22:29;;;;;;;3.15;1.70;;;;;9.90;95850.00;;;;8276901;28;20650;-70
2023/12/26 00:26:33;;;;;;;2.45;1.63;;;;;9.90;95848.00;;;;8278338;28;20316;-70
2023/12/26 00:30:36;;;;;;;1.40;1.40;;;;;9.90;95856.00;;;;8278355;28;20199;-71
2023/12/26 00:34:40;;;;;;;2.25;1.63;;;;;9.90;95852.00;;;;8281120;28;20194;-70
2023/12/26 00:38:43;;;;;;;2.00;1.80;;;;;9.90;95851.00;;;;8279952;28;20230;-71
2023/12/26 00:42:48;;;;;;;3.00;2.00;;;;;9.80;95840.00;;;;8272942;28;20206;-70
2023/12/26 00:46:51;;;;;;;2.78;1.58;;;;;9.70;95840.00;;;;8281230;28;20850;-70
2023/12/26 00:50:54;;;;;;;2.75;1.70;;;;;9.70;95838.00;;;;8271775;28;20221;-70
2023/12/26 00:54:58;;;;;;;2.95;1.60;;;;;9.60;95835.00;;;;8272165;28;20204;-72
2023/12/26 00:59:02;;;;;;;2.85;2.00;;;;;9.60;95834.00;;;;8272017;28;20743;-72
2023/12/26 01:03:06;;;;;;;1.77;1.50;;;;;9.60;95837.00;;;;8271872;28;21125;-70
2023/12/26 01:07:09;;;;;;;2.85;1.80;;;;;9.50;95843.00;;;;8268799;28;20202;-71
2023/12/26 01:11:12;;;;;;;2.58;1.50;;;;;9.50;95859.00;;;;8267992;28;20204;-72
2023/12/26 01:15:17;;;;;;;6.63;1.88;;;;;9.40;95855.00;;;;8266512;28;20217;-72
2023/12/26 01:19:20;;;;;;;1.98;1.80;;;;;9.40;95858.00;;;;8278455;28;20241;-70
2023/12/26 01:23:24;;;;;;;3.13;2.03;;;;;9.40;95862.00;;;;8283532;28;20225;-71
2023/12/26 01:27:27;;;;;;;1.98;1.80;;;;;9.30;95857.00;;;;8280658;28;20273;-70
2023/12/26 01:31:35;;;;;;;2.17;1.92;;;;;9.30;95859.00;;;;8282762;28;20721;-71
2023/12/26 01:35:39;;;;;;;5.13;2.00;;;;;9.20;95863.00;;;;8281425;28;21488;-70
2023/12/26 01:39:42;;;;;;;2.95;1.73;;;;;9.20;95860.00;;;;8282708;28;20233;-71
2023/12/26 01:43:46;;;;;;;3.28;1.75;;;;;9.20;95856.00;;;;8278649;28;20564;-71
2023/12/26 01:47:53;;;;;;;1.88;1.77;;;;;9.20;95851.00;;;;8276728;28;20224;-72
2023/12/26 01:51:58;;;;;;;3.08;1.85;;;;;9.10;95854.00;;;;8274976;28;20827;-70
2023/12/26 01:56:01;;;;;;;4.27;1.70;;;;;9.00;95845.00;;;;8278197;28;20202;-70
2023/12/26 02:00:06;;;;;;;2.85;1.65;;;;;8.90;95838.00;;;;8282685;28;20281;-72
2023/12/26 02:04:11;;;;;;;1.40;1.40;;;;;8.90;95847.00;;;;8278256;28;20227;-71
2023/12/26 02:08:15;;;;;;;4.00;1.80;;;;;8.90;95842.00;;;;8281715;28;20206;-71
2023/12/26 02:12:21;;;;;;;1.90;1.77;;;;;8.90;95847.00;;;;8281434;28;20218;-72
2023/12/26 02:16:26;;;;;;;7.20;1.70;;;;;8.90;95838.00;;;;8282698;28;20206;-70
2023/12/26 02:20:31;;;;;;;1.80;1.70;;;;;8.90;95842.00;;;;8276939;28;20296;-71
2023/12/26 02:24:36;;;;;;;4.40;1.52;;;;;8.90;95843.00;;;;8282546;28;20205;-71
2023/12/26 02:28:40;;;;;;;2.55;1.80;;;;;8.90;95838.00;;;;8274914;28;20206;-71
2023/12/26 02:32:46;;;;;;;3.50;1.90;;;;;8.90;95842.00;;;;8279653;28;20241;-71
2023/12/26 02:36:50;;;;;;;4.00;1.60;;;;;8.90;95837.00;;;;8279515;28;20252;-70
2023/12/26 02:40:55;;;;;;;1.58;1.48;;;;;8.90;95840.00;;;;8282871;28;20195;-70
2023/12/26 02:44:59;;;;;;;2.00;1.50;;;;;8.90;95841.00;;;;8279647;28;20557;-72
2023/12/26 02:49:02;;;;;;;1.50;1.40;;;;;8.90;95845.00;;;;8279233;28;20241;-72
2023/12/26 02:53:06;;;;;;;1.80;1.70;;;;;8.90;95830.00;;;;8278126;28;21048;-71
2023/12/26 02:57:10;;;;;;;3.42;2.05;;;;;8.90;95841.00;;;;8279605;28;20230;-71
2023/12/26 03:05:24;;;;;;;3.03;1.75;;;;;8.80;95828.00;;;;8265258;28;20225;-73
2023/12/26 03:09:27;;;;;;;2.53;1.80;;;;;8.80;95834.00;;;;8283537;28;20289;-70
2023/12/26 03:13:32;;;;;;;4.82;1.88;;;;;8.80;95824.00;;;;8279236;28;20199;-70
2023/12/26 03:17:35;;;;;;;3.40;1.85;;;;;8.70;95821.00;;;;8279012;28;20230;-71
2023/12/26 03:21:39;;;;;;;3.15;1.80;;;;;8.70;95815.00;;;;8278602;28;20260;-73
2023/12/26 03:25:43;;;;;;;1.85;1.75;;;;;8.70;95820.00;;;;8278591;28;20206;-71
2023/12/26 03:29:47;;;;;;;2.67;1.80;;;;;8.70;95824.00;;;;8278022;28;20206;-71
2023/12/26 03:33:51;;;;;;;2.22;1.80;;;;;8.70;95830.00;;;;8282893;28;20205;-72
2023/12/26 03:37:55;;;;;;;3.08;1.98;;;;;8.70;95827.00;;;;8274715;28;21013;-70
2023/12/26 03:41:59;;;;;;;4.57;1.63;;;;;8.70;95823.00;;;;8280112;28;20201;-73
2023/12/26 03:46:03;;;;;;;2.60;1.80;;;;;8.70;95823.00;;;;8277962;28;20615;-70
2023/12/26 03:50:07;;;;;;;2.67;1.85;;;;;8.70;95818.00;;;;8266788;28;20188;-70
2023/12/26 03:54:12;;;;;;;2.38;1.80;;;;;8.80;95832.00;;;;8276905;28;20205;-72
2023/12/26 03:58:15;;;;;;;3.63;2.03;;;;;8.70;95833.00;;;;8285304;28;20226;-71
2023/12/26 04:02:20;;;;;;;1.55;1.45;;;;;8.70;95838.00;;;;8275868;28;20280;-70
2023/12/26 04:06:23;;;;;;;2.08;1.90;;;;;8.70;95848.00;;;;8278880;28;20241;-71
2023/12/26 04:10:27;;;;;;;1.92;1.70;;;;;8.80;95850.00;;;;8278066;28;20198;-71
2023/12/26 04:14:30;;;;;;;4.25;1.80;;;;;8.80;95855.00;;;;8272849;28;20743;-71
2023/12/26 04:18:35;;;;;;;2.15;1.60;;;;;8.70;95850.00;;;;8276726;28;20265;-71
2023/12/26 04:22:38;;;;;;;2.45;1.80;;;;;8.70;95841.00;;;;8271078;28;20728;-71
2023/12/26 04:26:41;;;;;;;4.88;1.88;;;;;8.70;95848.00;;;;8282754;28;20229;-73
2023/12/26 04:30:44;;;;;;;2.03;1.83;;;;;8.70;95856.00;;;;8277450;28;20206;-72
2023/12/26 04:34:49;;;;;;;3.38;1.88;;;;;8.70;95865.00;;;;8276076;28;20905;-72
2023/12/26 04:38:53;;;;;;;4.97;2.05;;;;;8.60;95859.00;;;;8269433;28;20666;-70
2023/12/26 04:42:57;;;;;;;2.58;2.00;;;;;8.60;95865.00;;;;8276506;28;20202;-72
2023/12/26 04:47:00;;;;;;;2.97;1.95;;;;;8.70;95867.00;;;;8278138;28;20594;-71
2023/12/26 04:51:05;;;;;;;3.57;1.97;;;;;8.60;95874.00;;;;8273924;28;20206;-74
2023/12/26 04:55:09;;;;;;;6.35;2.33;;;;;8.70;95882.00;;;;8279295;28;20957;-71
2023/12/26 04:59:13;;;;;;;2.90;1.70;;;;;8.70;95869.00;;;;8285134;28;20671;-72
2023/12/26 05:03:16;;;;;;;2.75;1.75;;;;;8.60;95893.00;;;;8283636;28;20225;-74
2023/12/26 05:07:21;;;;;;;2.05;1.60;;;;;8.70;95886.00;;;;8284282;28;20209;-71
2023/12/26 05:11:25;;;;;;;6.20;1.90;;;;;8.60;95892.00;;;;8280187;28;20233;-71
2023/12/26 05:15:28;;;;;;;6.20;2.00;;;;;8.60;95890.00;;;;8285765;28;20679;-72
2023/12/26 05:19:31;;;;;;;2.38;1.90;;;;;8.70;95897.00;;;;8286917;28;20264;-73
2023/12/26 05:23:36;;;;;;;2.30;1.75;;;;;8.70;95905.00;;;;8278121;28;20214;-73
2023/12/26 05:27:40;;;;;;;3.63;2.10;;;;;8.60;95914.00;;;;8284978;28;20824;-71
2023/12/26 05:31:43;;;;;;;2.78;2.10;;;;;8.60;95910.00;;;;8285464;28;20202;-71
2023/12/26 05:35:46;;;;;;;2.42;1.73;;;;;8.60;95918.00;;;;8277914;28;20560;-71
2023/12/26 05:39:51;;;;;;;3.38;1.90;;;;;8.60;95922.00;;;;8282834;28;20221;-73
2023/12/26 05:43:54;;;;;;;3.03;1.73;;;;;8.50;95917.00;;;;8283231;28;20210;-72
2023/12/26 05:47:57;;;;;;;3.95;1.98;;;;;8.60;95920.00;;;;8281114;28;20858;-71
2023/12/26 05:52:01;;;;;;;5.05;2.13;;;;;8.50;95924.00;;;;8272145;28;20210;-72
2023/12/26 05:56:06;;;;;;;4.15;1.88;;;;;8.50;95920.00;;;;8280834;28;22008;-71
2023/12/26 06:00:10;;;;;;;1.90;1.80;;;;;8.50;95916.00;;;;8282332;28;20226;-71
2023/12/26 06:04:14;;;;;;;2.70;1.90;;;;;8.50;95913.00;;;;8283160;28;20230;-73
2023/12/26 06:08:18;;;;;;;5.20;2.22;;;;;8.50;95923.00;;;;8282367;28;20194;-72
2023/12/26 06:12:22;;;;;;;5.95;2.28;;;;;8.40;95921.00;;;;8282030;28;20926;-72
2023/12/26 06:16:25;;;;;;;4.35;1.90;;;;;8.40;95921.00;;;;8278151;28;20226;-71
2023/12/26 06:20:29;;;;;;;5.10;2.50;;;;;8.40;95917.00;;;;8276847;28;20312;-72
2023/12/26 06:24:32;;;;;;;2.67;2.13;;;;;8.40;95937.00;;;;8275910;28;20237;-72
2023/12/26 06:28:36;;;;;;;3.03;2.10;;;;;8.40;95951.00;;;;8282117;28;20205;-71
2023/12/26 06:32:40;;;;;;;3.35;1.92;;;;;8.40;95954.00;;;;8276998;28;20199;-72
2023/12/26 06:36:44;;;;;;;2.17;2.03;;;;;8.50;95955.00;;;;8276259;28;20246;-72
2023/12/26 06:40:47;;;;;;;4.07;1.98;;;;;8.50;95946.00;;;;8282485;28;20254;-71
2023/12/26 06:44:52;;;;;;;1.98;1.80;;;;;8.50;95955.00;;;;8280892;28;20245;-71
2023/12/26 06:48:55;;;;;;;2.83;1.90;;;;;8.50;95971.00;;;;8280146;28;20219;-73
2023/12/26 06:52:59;;;;;;;7.20;2.22;;;;;8.50;95971.00;;;;8277064;28;20234;-73
2023/12/26 06:57:07;;;;;;;3.65;2.15;;;;;8.60;95974.00;;;;8282061;28;20623;-73
2023/12/26 07:01:13;;;;;;;3.75;2.17;;;;;8.60;95984.00;;;;8276703;28;20218;-71
2023/12/26 07:05:16;;;;;;;6.68;2.03;;;;;8.60;95991.00;;;;8280737;28;20225;-71
2023/12/26 07:09:20;;;;;;;4.88;1.98;;;;;8.60;95995.00;;;;8277973;28;20240;-72
2023/12/26 07:13:23;;;;;;;5.22;1.90;;;;;8.60;96002.00;;;;8269575;28;20230;-73
2023/12/26 07:17:28;;;;;;;2.10;1.80;;;;;8.60;96008.00;;;;8268657;28;20922;-70
2023/12/26 07:21:31;;;;;;;4.00;2.28;;;;;8.60;96025.00;;;;8278688;28;20254;-72
2023/12/26 07:25:34;;;;;;;3.53;2.33;;;;;8.70;96022.00;;;;8278277;28;20634;-73
2023/12/26 07:29:38;;;;;;;6.22;2.00;;;;;8.70;96034.00;;;;8281089;28;20202;-76
2023/12/26 07:33:42;;;;;;;3.40;1.83;;;;;8.70;96044.00;;;;8275915;28;20960;-74
2023/12/26 07:37:46;;;;;;;2.88;2.15;;;;;8.70;96043.00;;;;8283753;28;20203;-75
2023/12/26 07:41:49;;;;;;;4.13;2.20;;;;;8.70;96059.00;;;;8284501;28;20245;-75
2023/12/26 07:45:52;;;;;;;4.53;2.10;;;;;8.70;96049.00;;;;8282162;28;20297;-72
2023/12/26 07:49:57;;;;;;;2.00;1.90;;;;;8.60;96069.00;;;;8277804;28;20852;-72
2023/12/26 07:54:00;;;;;;;2.20;2.00;;;;;8.50;96077.00;;;;8279181;28;20209;-72
2023/12/26 07:58:05;;;;;;;3.90;2.17;;;;;8.50;96085.00;;;;8279728;28;20194;-75
2023/12/26 08:02:08;;;;;;;3.42;2.17;;;;;8.50;96080.00;;;;8278474;28;20225;-73
2023/12/26 08:06:12;;;;;;;6.50;2.47;;;;;8.40;96089.00;;;;8272021;28;20289;-71
2023/12/26 08:10:16;;;;;;;3.00;2.00;;;;;8.40;96096.00;;;;8276594;28;20276;-74
2023/12/26 08:14:19;;;;;;;6.83;1.83;;;;;8.40;96101.00;;;;8279343;28;20202;-73
2023/12/26 08:18:23;;;;;;;2.20;1.98;;;;;8.40;96106.00;;;;8276212;28;20198;-74
2023/12/26 08:22:28;;;;;;;3.22;2.22;;;;;8.40;96128.00;;;;8274857;28;20324;-76
2023/12/26 08:26:31;;;;;;;4.35;2.35;;;;;8.40;96132.00;;;;8279450;28;20198;-75
2023/12/26 08:30:35;;;;;;;3.53;2.08;;;;;8.40;96139.00;;;;8270933;28;20213;-76
2023/12/26 08:34:44;;;;;;;6.60;2.20;;;;;8.40;96135.00;;;;8276955;28;20702;-79
2023/12/26 08:38:48;;;;;;;3.90;2.03;;;;;8.50;96138.00;;;;8276885;28;20198;-75
2023/12/26 08:42:52;;;;;;;4.10;2.40;;;;;8.50;96141.00;;;;8276836;28;20257;-75
2023/12/26 08:46:55;;;;;;;2.90;2.30;;;;;8.60;96138.00;;;;8281328;28;20719;-76
2023/12/26 08:50:59;;;;;;;7.35;2.40;;;;;8.60;96149.00;;;;8279341;28;20223;-77
2023/12/26 08:55:04;;;;;;;3.17;2.08;;;;;8.60;96154.00;;;;8281674;28;20206;-78
2023/12/26 08:59:08;;;;;;;2.15;1.80;;;;;8.70;96149.00;;;;8279894;28;20664;-77
2023/12/26 09:03:11;;;;;;;5.03;2.22;;;;;8.80;96157.00;;;;8276101;28;20230;-77
2023/12/26 09:07:15;;;;;;;6.20;2.25;;;;;8.80;96162.00;;;;8279941;28;20197;-76
2023/12/26 09:11:20;;;;;;;3.90;2.17;;;;;8.90;96166.00;;;;8280410;28;20198;-74
2023/12/26 09:15:23;;;;;;;5.78;2.00;;;;;9.00;96169.00;;;;8273135;28;20285;-77
2023/12/26 09:19:28;;;;;;;6.53;2.20;;;;;9.00;96171.00;;;;8281017;28;20289;-75
2023/12/26 09:23:32;;;;;;;5.17;1.77;;;;;9.10;96180.00;;;;8281528;28;20289;-77
2023/12/26 09:27:37;;;;;;;8.43;2.35;;;;;9.10;96183.00;;;;8287300;28;20204;-78
2023/12/26 09:31:40;;;;;;;3.65;1.98;;;;;9.10;96180.00;;;;8283014;28;20871;-76
2023/12/26 09:35:43;;;;;;;2.85;2.10;;;;;9.10;96189.00;;;;8280723;28;20233;-76
2023/12/26 09:39:46;;;;;;;2.53;2.20;;;;;9.20;96190.00;;;;8281856;28;20283;-77
2023/12/26 09:43:51;;;;;;;4.10;2.10;;;;;9.20;96191.00;;;;8285554;28;20208;-74
2023/12/26 09:47:54;;;;;;;6.28;2.20;;;;;9.20;96200.00;;;;8287552;28;20209;-77
2023/12/26 09:52:02;;;;;;;3.47;1.90;;;;;9.30;96197.00;;;;8285434;28;20302;-76
2023/12/26 09:56:08;;;;;;;4.75;2.30;;;;;9.30;96215.00;;;;8285591;28;20241;-77
2023/12/26 10:00:13;;;;;;;3.20;1.88;;;;;9.30;96211.00;;;;8291500;28;20231;-76
2023/12/26 10:04:17;;;;;;;6.85;2.38;;;;;9.40;96219.00;;;;8283829;28;20230;-75
2023/12/26 10:08:21;;;;;;;8.20;2.38;;;;;9.40;96217.00;;;;8285211;28;20714;-77
2023/12/26 10:12:27;;;;;;;6.00;2.15;;;;;9.50;96221.00;;;;8282769;28;20305;-73
2023/12/26 10:16:31;;;;;;;3.08;1.80;;;;;9.60;96220.00;;;;8285038;28;20602;-74
2023/12/26 10:20:35;;;;;;;6.28;2.22;;;;;9.80;96221.00;;;;8282820;28;20229;-76
2023/12/26 10:24:40;;;;;;;8.52;2.25;;;;;9.90;96213.00;;;;8283681;28;20222;-73
2023/12/26 10:28:43;;;;;;;5.97;1.95;;;;;9.90;96213.00;;;;8281934;28;20846;-75
2023/12/26 10:32:48;;;;;;;6.22;2.10;;;;;10.00;96205.00;;;;8278508;28;20206;-73
2023/12/26 10:36:52;;;;;;;5.82;2.38;;;;;10.10;96219.00;;;;8282749;28;20290;-74
2023/12/26 10:40:58;;;;;;;5.00;2.42;;;;;10.00;96204.00;;;;8279778;28;20288;-74
2023/12/26 10:45:04;;;;;;;4.28;1.90;;;;;10.10;96201.00;;;;8284626;28;20663;-76
2023/12/26 10:49:11;;;;;;;3.78;1.98;;;;;10.10;96210.00;;;;8281497;28;20207;-75
2023/12/26 10:53:19;;;;;;;4.55;2.03;;;;;10.00;96211.00;;;;8280077;28;20191;-74
2023/12/26 10:57:24;;;;;;;7.30;2.22;;;;;9.90;96218.00;;;;8282180;28;20203;-76
2023/12/26 13:52:46;;;;;;;18.08;9.57;;;;;10.30;96257.00;;;;8282822;28;20838;-76
2023/12/26 13:57:26;;;;;;;24.50;10.50;;;;;10.30;96280.00;;;;8276837;28;20200;-77
2023/12/26 14:02:07;;;;;;;8.32;5.47;;;;;10.30;96290.00;;;;8281570;28;20660;-78
2023/12/26 14:06:47;;;;;;;70.57;34.08;;;;;10.30;96291.00;;;;8279268;28;20482;-75
2023/12/26 14:11:28;;;;;;;195.18;106.18;;;;;10.20;96299.00;;;;8281433;28;20224;-74
2023/12/26 14:16:08;;;;;;;39.28;22.13;;;;;10.30;96297.00;;;;8273462;28;20226;-75
2023/12/26 14:20:33;;;;;;;102.35;48.90;;;;;10.30;96311.00;;;;8277316;28;20246;-75
2023/12/26 14:24:36;;;;;;;54.42;32.15;;;;;10.30;96297.00;;;;8283388;28;20208;-76
2023/12/26 14:28:39;;;;;;;4.15;3.65;;;;;10.30;96330.00;;;;8284108;28;20206;-74
2023/12/26 14:32:43;;;;;;;5.20;2.53;;;;;10.20;96337.00;;;;8282743;28;21098;-73
2023/12/26 14:36:50;;;;;;;1.55;1.50;;;;;10.20;96341.00;;;;8280760;28;20209;-74
2023/12/26 14:40:56;;;;;;;5.90;4.70;;;;;10.20;96333.00;;;;8282755;28;20736;-76
2023/12/26 14:44:59;;;;;;;2.60;2.42;;;;;10.10;96339.00;;;;8280192;28;20221;-75
2023/12/26 14:49:02;;;;;;;4.15;3.83;;;;;10.10;96356.00;;;;8277607;28;20205;-75
2023/12/26 14:53:07;;;;;;;19.73;13.68;;;;;10.10;96360.00;;;;8278436;28;20198;-77
2023/12/26 14:57:11;;;;;;;2.65;2.45;;;;;10.10;96348.00;;;;8277835;28;20216;-76
2023/12/26 15:01:14;;;;;;;4.65;2.25;;;;;10.10;96342.00;;;;8281850;28;20243;-75
2023/12/26 15:05:18;;;;;;;2.97;1.50;;;;;10.10;96347.00;;;;8275983;28;20258;-75
2023/12/26 15:09:23;;;;;;;9.35;6.75;;;;;10.10;96355.00;;;;8279297;28;21257;-78
2023/12/26 15:13:26;;;;;;;2.55;1.65;;;;;10.10;96373.00;;;;8279022;28;20230;-76
2023/12/26 15:17:44;;;;;;;1.70;1.60;;;;;10.10;96381.00;;;;8276690;28;20206;-78
2023/12/26 15:21:48;;;;;;;2.63;2.42;;;;;10.10;96377.00;;;;8279419;28;20232;-77
2023/12/26 15:25:53;;;;;;;3.67;3.47;;;;;10.10;96389.00;;;;8272138;28;20204;-78
2023/12/26 15:29:57;;;;;;;11.90;10.73;;;;;10.00;96396.00;;;;8268241;28;20207;-80
2023/12/26 15:34:01;;;;;;;15.85;14.45;;;;;10.00;96396.00;;;;8277650;28;20194;-77
2023/12/26 15:38:05;;;;;;;3.35;3.00;;;;;9.90;96396.00;;;;8280719;28;20293;-78
2023/12/26 15:42:10;;;;;;;6.47;5.90;;;;;9.60;96403.00;;;;8270929;28;20314;-80
2023/12/26 15:46:18;;;;;;;6.63;5.63;;;;;9.50;96414.00;;;;8266744;28;20993;-80
2023/12/26 15:50:22;;;;;;;1.95;1.52;;;;;9.30;96413.00;;;;8269891;28;20202;-80
2023/12/26 15:54:26;;;;;;;4.13;1.50;;;;;9.30;96417.00;;;;8273710;28;20287;-79
2023/12/26 15:58:30;;;;;;;1.50;1.40;;;;;9.10;96409.00;;;;8268045;28;20202;-82
2023/12/26 16:02:34;;;;;;;3.43;2.33;;;;;9.00;96412.00;;;;8274960;28;20234;-83
2023/12/26 16:06:39;;;;;;;2.60;1.80;;;;;9.00;96422.00;;;;8271757;28;20303;-80
2023/12/26 16:10:43;;;;;;;1.80;1.63;;;;;8.90;96417.00;;;;8269833;28;20198;-76
2023/12/26 16:14:48;;;;;;;3.20;1.80;;;;;8.90;96439.00;;;;8270986;28;20201;-75
2023/12/26 16:18:51;;;;;;;2.00;1.75;;;;;8.90;96456.00;;;;8271114;28;20643;-79
2023/12/26 16:22:55;;;;;;;2.20;1.80;;;;;8.90;96466.00;;;;8268354;28;20253;-81
2023/12/26 16:26:59;;;;;;;3.15;1.90;;;;;8.90;96461.00;;;;8266326;28;20202;-79
2023/12/26 16:31:10;;;;;;;4.95;1.80;;;;;8.80;96472.00;;;;8265253;28;20225;-78
2023/12/26 16:35:30;;;;;;;4.07;1.80;;;;;8.80;96491.00;;;;8267587;28;20202;-78
2023/12/26 16:39:34;;;;;;;3.70;2.00;;;;;8.80;96475.00;;;;8270664;28;20233;-79
2023/12/26 16:43:37;;;;;;;1.70;1.60;;;;;8.80;96490.00;;;;8271569;28;20234;-79
2023/12/26 16:47:42;;;;;;;4.57;2.00;;;;;8.80;96494.00;;;;8269712;28;20202;-77
2023/12/26 16:51:54;;;;;;;7.07;2.00;;;;;8.80;96484.00;;;;8277125;28;20233;-77
2023/12/26 16:55:58;;;;;;;3.10;1.60;;;;;8.80;96490.00;;;;8277362;28;20932;-79
2023/12/26 17:00:01;;;;;;;4.97;2.10;;;;;8.90;96488.00;;;;8277991;28;20213;-78
2023/12/26 17:04:06;;;;;;;2.38;1.77;;;;;8.90;96489.00;;;;8273447;28;20237;-75
2023/12/26 17:08:09;;;;;;;2.42;1.83;;;;;8.90;96498.00;;;;8288220;28;20813;-76
2023/12/26 17:12:13;;;;;;;2.75;2.47;;;;;8.90;96480.00;;;;8275640;28;20258;-76
2023/12/26 17:16:17;;;;;;;2.45;2.25;;;;;8.80;96485.00;;;;8285147;28;20194;-78
2023/12/26 17:20:22;;;;;;;3.07;2.13;;;;;8.70;96480.00;;;;8262187;28;20197;-77
2023/12/26 17:24:25;;;;;;;17.47;7.83;;;;;8.60;96489.00;;;;8280290;28;20958;-77
2023/12/26 17:28:30;;;;;;;8.97;2.87;;;;;8.50;96491.00;;;;8274381;28;20208;-75
2023/12/26 17:32:34;;;;;;;8.53;2.43;;;;;8.50;96491.00;;;;8274367;28;20305;-76
2023/12/26 17:36:38;;;;;;;2.30;2.03;;;;;8.50;96501.00;;;;8280264;28;20742;-75
2023/12/26 17:40:42;;;;;;;3.53;2.43;;;;;8.60;96510.00;;;;8272206;28;20880;-74
2023/12/26 17:44:46;;;;;;;3.35;2.20;;;;;8.60;96498.00;;;;8270064;28;20336;-75
2023/12/26 17:48:50;;;;;;;4.07;2.60;;;;;8.60;96504.00;;;;8275484;28;20664;-75
2023/12/26 17:52:55;;;;;;;2.40;2.20;;;;;8.70;96510.00;;;;8270635;28;20591;-78
2023/12/26 17:56:59;;;;;;;2.63;1.65;;;;;8.70;96520.00;;;;8274277;28;20229;-78
2023/12/26 18:01:02;;;;;;;5.03;1.73;;;;;8.80;96524.00;;;;8272718;28;20256;-78
2023/12/26 18:05:07;;;;;;;2.47;1.90;;;;;8.80;96529.00;;;;8271697;28;20241;-76
2023/12/26 18:09:12;;;;;;;1.70;1.60;;;;;8.90;96540.00;;;;8272056;28;20207;-77
2023/12/26 18:13:20;;;;;;;1.63;1.52;;;;;8.90;96549.00;;;;8275430;28;20289;-77
2023/12/26 18:17:23;;;;;;;1.63;1.52;;;;;8.90;96557.00;;;;8275240;28;20233;-77
2023/12/26 18:21:31;;;;;;;1.20;1.20;;;;;9.00;96560.00;;;;8272085;28;20727;-75
2023/12/26 18:25:36;;;;;;;1.50;1.40;;;;;9.00;96555.00;;;;8270617;28;20230;-77
2023/12/26 18:29:40;;;;;;;1.30;1.30;;;;;8.90;96555.00;;;;8270326;28;20213;-76
2023/12/26 18:33:43;;;;;;;1.63;1.20;;;;;8.90;96553.00;;;;8282187;28;20205;-80
2023/12/26 18:37:49;;;;;;;1.35;1.25;;;;;8.80;96564.00;;;;8281588;28;20206;-77
2023/12/26 18:41:54;;;;;;;1.67;1.53;;;;;8.70;96560.00;;;;8278857;28;20197;-79
2023/12/26 18:45:57;;;;;;;1.40;1.40;;;;;8.60;96568.00;;;;8281886;28;20237;-78
2023/12/26 18:50:01;;;;;;;2.25;1.20;;;;;8.60;96572.00;;;;8274355;28;20199;-79
2023/12/26 18:54:05;;;;;;;1.60;1.50;;;;;8.70;96574.00;;;;8273834;28;20460;-78
2023/12/26 18:58:10;;;;;;;1.60;1.50;;;;;8.70;96570.00;;;;8273258;28;20653;-77
2023/12/26 19:02:13;;;;;;;1.35;1.35;;;;;8.70;96581.00;;;;8270720;28;20236;-76
2023/12/26 19:06:17;;;;;;;1.40;1.30;;;;;8.70;96585.00;;;;8280432;28;20309;-77
2023/12/26 19:10:20;;;;;;;2.90;1.67;;;;;8.70;96579.00;;;;8278632;28;20202;-77
2023/12/26 19:14:25;;;;;;;1.77;1.60;;;;;8.70;96587.00;;;;8278109;28;20940;-76
2023/12/26 19:18:28;;;;;;;1.80;1.43;;;;;8.70;96586.00;;;;8280587;28;20308;-77
2023/12/26 19:22:32;;;;;;;1.42;1.33;;;;;8.80;96595.00;;;;8273481;28;20194;-77
2023/12/26 19:26:35;;;;;;;1.33;1.25;;;;;8.80;96601.00;;;;8282061;28;20257;-77
2023/12/26 19:30:40;;;;;;;1.88;1.70;;;;;8.80;96593.00;;;;8274958;28;20214;-77
2023/12/26 19:34:44;;;;;;;2.63;1.50;;;;;8.80;96588.00;;;;8282337;28;20202;-78
2023/12/26 19:38:48;;;;;;;1.60;1.50;;;;;8.80;96603.00;;;;8272774;28;20203;-77
2023/12/26 19:42:51;;;;;;;2.28;1.63;;;;;8.80;96608.00;;;;8279680;28;20265;-77
2023/12/26 19:46:56;;;;;;;1.48;1.30;;;;;8.90;96616.00;;;;8273100;28;20520;-77
2023/12/26 19:51:00;;;;;;;1.85;1.65;;;;;8.90;96607.00;;;;8280265;28;20204;-81
2023/12/26 19:55:04;;;;;;;1.75;1.65;;;;;8.90;96611.00;;;;8282734;28;20830;-81
2023/12/26 19:59:08;;;;;;;1.35;1.35;;;;;8.90;96618.00;;;;8277447;28;20210;-80
2023/12/26 20:03:12;;;;;;;2.00;1.50;;;;;8.90;96612.00;;;;8277491;28;20320;-81
2023/12/26 20:07:28;;;;;;;4.50;1.60;;;;;8.90;96611.00;;;;8279057;28;20203;-79
2023/12/26 20:11:31;;;;;;;1.17;1.17;;;;;8.90;96609.00;;;;8278482;28;20205;-78
2023/12/26 20:15:35;;;;;;;1.38;1.27;;;;;8.80;96616.00;;;;8278986;28;20716;-80
2023/12/26 20:19:39;;;;;;;1.67;1.58;;;;;8.90;96619.00;;;;8277566;28;20206;-79
2023/12/26 20:23:45;;;;;;;1.25;1.17;;;;;8.80;96608.00;;;;8278692;28;20234;-79
2023/12/26 20:27:49;;;;;;;1.63;1.53;;;;;8.70;96620.00;;;;8274257;28;20308;-81
2023/12/26 20:31:56;;;;;;;2.88;1.42;;;;;8.60;96617.00;;;;8277285;28;20209;-79
2023/12/26 20:36:01;;;;;;;2.28;1.60;;;;;8.50;96614.00;;;;8277047;28;20195;-79
2023/12/26 20:40:05;;;;;;;2.80;1.47;;;;;8.50;96603.00;;;;8275748;28;20202;-82
2023/12/26 20:44:08;;;;;;;2.60;1.80;;;;;8.40;96612.00;;;;8278129;28;20226;-79
2023/12/26 20:48:12;;;;;;;3.45;1.52;;;;;8.40;96617.00;;;;8275104;28;20199;-78
2023/12/26 20:52:16;;;;;;;2.78;1.63;;;;;8.30;96632.00;;;;8278245;28;20248;-79
2023/12/26 20:56:20;;;;;;;1.60;1.50;;;;;8.20;96651.00;;;;8281561;28;20207;-81
2023/12/26 21:00:28;;;;;;;1.90;1.60;;;;;8.10;96660.00;;;;8272148;28;20198;-81
2023/12/26 21:04:31;;;;;;;2.33;1.73;;;;;8.00;96662.00;;;;8275077;28;20249;-78
2023/12/26 21:08:37;;;;;;;1.85;1.70;;;;;8.00;96672.00;;;;8281714;28;20208;-79
2023/12/26 21:12:40;;;;;;;1.50;1.40;;;;;7.90;96676.00;;;;8277394;28;20205;-79
2023/12/26 21:16:46;;;;;;;3.63;1.70;;;;;7.90;96680.00;;;;8277551;28;20249;-80
2023/12/26 21:20:50;;;;;;;5.57;2.43;;;;;7.90;96691.00;;;;8278284;28;20202;-79
2023/12/26 21:24:55;;;;;;;1.93;1.70;;;;;7.90;96694.00;;;;8276676;28;20222;-81
2023/12/26 21:28:58;;;;;;;2.60;1.70;;;;;7.90;96703.00;;;;8281664;28;20221;-79
2023/12/26 21:33:01;;;;;;;1.80;1.70;;;;;8.00;96711.00;;;;8277044;28;20249;-79
2023/12/26 21:37:05;;;;;;;1.80;1.70;;;;;8.00;96708.00;;;;8286906;28;20237;-80
2023/12/26 21:41:09;;;;;;;3.30;1.80;;;;;8.00;96722.00;;;;8283996;28;20715;-81
2023/12/26 21:45:13;;;;;;;1.80;1.70;;;;;8.00;96728.00;;;;8279941;28;20293;-81
2023/12/26 21:49:16;;;;;;;1.90;1.65;;;;;8.10;96727.00;;;;8285692;28;20190;-81
2023/12/26 21:53:19;;;;;;;1.70;1.60;;;;;8.10;96724.00;;;;8284490;28;20229;-80
2023/12/26 21:57:24;;;;;;;2.60;1.80;;;;;8.10;96725.00;;;;8289967;28;20217;-80
2023/12/26 22:01:29;;;;;;;5.77;2.00;;;;;8.10;96727.00;;;;8283055;28;20198;-81
2023/12/26 22:05:32;;;;;;;5.30;1.73;;;;;8.10;96736.00;;;;8285780;28;20292;-79
2023/12/26 22:09:36;;;;;;;1.63;1.50;;;;;8.10;96747.00;;;;8284170;28;20194;-79
2023/12/26 22:13:40;;;;;;;3.45;1.73;;;;;8.10;96753.00;;;;8285368;28;20293;-79
2023/12/26 22:17:43;;;;;;;1.67;1.57;;;;;8.10;96757.00;;;;8283631;28;20928;-79
2023/12/26 22:21:47;;;;;;;1.88;1.77;;;;;8.10;96779.00;;;;8285727;28;20210;-77
2023/12/26 22:25:50;;;;;;;5.30;1.93;;;;;8.20;96782.00;;;;8283292;28;20330;-79
2023/12/26 22:29:55;;;;;;;3.47;1.73;;;;;8.20;96772.00;;;;8285732;28;20203;-80
2023/12/26 22:33:58;;;;;;;5.43;1.90;;;;;8.20;96766.00;;;;8282370;28;20252;-77
2023/12/26 22:38:01;;;;;;;2.30;1.63;;;;;8.30;96768.00;;;;8284493;28;20640;-77
2023/12/26 22:42:05;;;;;;;1.83;1.60;;;;;8.30;96769.00;;;;8281001;28;20236;-79
2023/12/26 22:46:09;;;;;;;1.80;1.70;;;;;8.30;96764.00;;;;8282907;28;20260;-79
2023/12/26 22:50:13;;;;;;;2.60;1.63;;;;;8.30;96770.00;;;;8282416;28;20198;-77
2023/12/26 22:54:18;;;;;;;2.05;1.60;;;;;8.30;96768.00;;;;8284599;28;20524;-78
2023/12/26 22:58:21;;;;;;;2.85;1.70;;;;;8.30;96772.00;;;;8283220;28;20202;-79
2023/12/26 23:02:25;;;;;;;3.03;1.50;;;;;8.20;96790.00;;;;8281742;28;20218;-80
2023/12/26 23:06:29;;;;;;;6.40;2.00;;;;;8.20;96793.00;;;;8284504;28;20226;-78
2023/12/26 23:10:32;;;;;;;4.75;1.80;;;;;8.10;96792.00;;;;8282788;28;20924;-78
2023/12/26 23:14:35;;;;;;;4.45;1.90;;;;;8.00;96795.00;;;;8282281;28;20226;-79
2023/12/26 23:18:40;;;;;;;2.67;1.58;;;;;8.00;96794.00;;;;8281637;28;20313;-79
2023/12/26 23:22:43;;;;;;;5.60;2.10;;;;;7.90;96795.00;;;;8289834;28;20197;-77
2023/12/26 23:26:49;;;;;;;1.70;1.67;;;;;7.80;96794.00;;;;8279810;28;20236;-78
2023/12/26 23:30:52;;;;;;;1.50;1.40;;;;;7.80;96796.00;;;;8280498;28;20245;-81
2023/12/26 23:34:57;;;;;;;5.53;1.60;;;;;7.70;96790.00;;;;8276548;28;20204;-76